createdAt,value
2023-05-12T00:00:25.644Z,669.2308
2023-05-12T00:01:26.699Z,668.7692
2023-05-12T00:02:28.432Z,667.0769
2023-05-12T00:03:30.589Z,665.2308
2023-05-12T00:04:31.727Z,668.2308
2023-05-12T00:05:33.269Z,670.5385
2023-05-12T00:06:34.935Z,677.3846
2023-05-12T00:07:36.614Z,683.9231
2023-05-12T00:08:38.237Z,681.5385
2023-05-12T00:09:39.888Z,680.9231
2023-05-12T00:10:41.494Z,674.7692
2023-05-12T00:11:43.163Z,673.9231
2023-05-12T00:12:44.790Z,678.8461
2023-05-12T00:13:46.684Z,673.7692
2023-05-12T00:14:48.238Z,669.7692
2023-05-12T00:15:49.873Z,671.6923
2023-05-12T00:16:51.734Z,674.3846
2023-05-12T00:17:53.274Z,680.2308
2023-05-12T00:18:54.855Z,681.3846
2023-05-12T00:19:56.915Z,678.5385
2023-05-12T00:20:58.983Z,683.4615
2023-05-12T00:21:59.748Z,673.5385
2023-05-12T00:23:01.343Z,675.3077
2023-05-12T00:24:03.094Z,679.1539
2023-05-12T00:25:04.702Z,671.2308
2023-05-12T00:26:06.311Z,677.8461
2023-05-12T00:27:07.905Z,681.5385
2023-05-12T00:28:09.698Z,683.8461
2023-05-12T00:29:11.318Z,679.8461
2023-05-12T00:30:12.939Z,681.7692
2023-05-12T00:31:14.551Z,678.3846
2023-05-12T00:32:16.199Z,678.6923
2023-05-12T00:33:17.835Z,680.0000
2023-05-12T00:34:19.593Z,674.9231
2023-05-12T00:35:21.086Z,682.6154
2023-05-12T00:36:22.806Z,679.8461
2023-05-12T00:37:24.406Z,679.7692
2023-05-12T00:38:26.057Z,674.4615
2023-05-12T00:39:27.796Z,672.0000
2023-05-12T00:40:29.398Z,673.0769
2023-05-12T00:41:30.999Z,671.6154
2023-05-12T00:42:32.725Z,677.0769
2023-05-12T00:43:34.329Z,671.9231
2023-05-12T00:44:36.000Z,674.3846
2023-05-12T00:45:37.718Z,679.3846
2023-05-12T00:46:39.240Z,675.7692
2023-05-12T00:47:40.917Z,674.4615
2023-05-12T00:48:42.570Z,676.3077
2023-05-12T00:49:44.284Z,676.5385
2023-05-12T00:50:45.901Z,677.2308
2023-05-12T00:51:47.513Z,684.7692
2023-05-12T00:52:49.189Z,677.1539
2023-05-12T00:53:50.933Z,676.1539
2023-05-12T00:54:52.606Z,679.6154
2023-05-12T00:55:54.161Z,678.0769
2023-05-12T00:56:55.930Z,677.7692
2023-05-12T00:57:57.482Z,672.3077
2023-05-12T00:58:59.133Z,677.6923
2023-05-12T01:00:00.862Z,680.9231
2023-05-12T01:01:02.468Z,675.8461
2023-05-12T01:02:04.061Z,676.3077
2023-05-12T01:03:05.923Z,673.6923
2023-05-12T01:04:07.372Z,669.5385
2023-05-12T01:05:09.088Z,670.6154
2023-05-12T01:06:10.641Z,673.4615
2023-05-12T01:07:12.336Z,671.8461
2023-05-12T01:08:13.925Z,668.2308
2023-05-12T01:09:15.622Z,678.0000
2023-05-12T01:10:17.373Z,681.2308
2023-05-12T01:11:18.897Z,683.3077
2023-05-12T01:12:20.505Z,679.9231
2023-05-12T01:13:22.218Z,674.6154
2023-05-12T01:14:23.938Z,677.6923
2023-05-12T01:15:25.645Z,679.3077
2023-05-12T01:16:27.123Z,676.4615
2023-05-12T01:17:28.897Z,684.2308
2023-05-12T01:18:30.566Z,678.0769
2023-05-12T01:19:32.172Z,679.1539
2023-05-12T01:20:33.730Z,676.7692
2023-05-12T01:21:35.482Z,677.8461
2023-05-12T01:22:37.909Z,675.6154
2023-05-12T01:23:38.712Z,682.0769
2023-05-12T01:24:40.399Z,682.2308
2023-05-12T01:25:42.049Z,682.9231
2023-05-12T01:26:43.675Z,685.3077
2023-05-12T01:27:45.396Z,679.9231
2023-05-12T01:28:46.960Z,668.9231
2023-05-12T01:29:48.665Z,677.7692
2023-05-12T01:30:50.366Z,679.3846
2023-05-12T01:31:51.902Z,679.5385
2023-05-12T01:32:53.571Z,677.7692
2023-05-12T01:33:55.189Z,676.4615
2023-05-12T01:34:56.854Z,678.6923
2023-05-12T01:35:58.562Z,682.5385
2023-05-12T01:37:00.164Z,679.6923
2023-05-12T01:38:02.138Z,681.3077
2023-05-12T01:39:03.455Z,675.4615
2023-05-12T01:40:05.071Z,672.3846
2023-05-12T01:41:06.788Z,672.0769
2023-05-12T01:42:08.444Z,673.4615
2023-05-12T01:43:10.070Z,676.6154
2023-05-12T01:44:11.699Z,679.5385
2023-05-12T01:45:13.358Z,678.8461
2023-05-12T01:46:15.503Z,678.5385
2023-05-12T01:47:16.713Z,677.2308
2023-05-12T01:48:18.272Z,674.8461
2023-05-12T01:49:19.950Z,675.0000
2023-05-12T01:50:21.800Z,673.0769
2023-05-12T01:51:23.346Z,673.6923
2023-05-12T01:52:24.907Z,678.1539
2023-05-12T01:53:26.615Z,677.6154
2023-05-12T01:54:28.184Z,675.6923
2023-05-12T01:55:29.846Z,673.3846
2023-05-12T01:56:32.480Z,675.3846
2023-05-12T01:57:33.130Z,683.8461
2023-05-12T01:58:34.804Z,682.6154
2023-05-12T01:59:36.398Z,678.0769
2023-05-12T02:00:38.172Z,680.2308
2023-05-12T02:01:39.750Z,681.6154
2023-05-12T02:02:43.071Z,687.7692
2023-05-12T02:03:43.166Z,676.9231
2023-05-12T02:04:44.750Z,679.3077
2023-05-12T02:05:46.275Z,679.3846
2023-05-12T02:06:47.996Z,680.8461
2023-05-12T02:07:49.627Z,682.6154
2023-05-12T02:08:51.967Z,683.8461
2023-05-12T02:09:52.859Z,680.2308
2023-05-12T02:10:54.553Z,683.4615
2023-05-12T02:11:56.282Z,678.3846
2023-05-12T02:12:57.912Z,685.0000
2023-05-12T02:13:59.462Z,684.1539
2023-05-12T02:15:01.231Z,685.0000
2023-05-12T02:16:02.898Z,681.8461
2023-05-12T02:17:04.548Z,677.9231
2023-05-12T02:18:06.175Z,675.3846
2023-05-12T02:19:07.805Z,681.8461
2023-05-12T02:20:09.397Z,683.8461
2023-05-12T02:21:11.037Z,681.2308
2023-05-12T02:22:12.689Z,685.9231
2023-05-12T02:23:14.347Z,684.9231
2023-05-12T02:24:15.918Z,681.6154
2023-05-12T02:25:17.606Z,674.6154
2023-05-12T02:26:19.194Z,667.0000
2023-05-12T02:27:20.938Z,666.7692
2023-05-12T02:28:22.567Z,681.3077
2023-05-12T02:29:24.239Z,679.0000
2023-05-12T02:30:25.823Z,677.7692
2023-05-12T02:31:27.605Z,674.7692
2023-05-12T02:32:29.505Z,672.6154
2023-05-12T02:33:30.819Z,675.1539
2023-05-12T02:34:32.475Z,678.0769
2023-05-12T02:35:34.096Z,669.3077
2023-05-12T02:36:35.727Z,672.3846
2023-05-12T02:37:37.505Z,669.6154
2023-05-12T02:38:39.001Z,670.6154
2023-05-12T02:39:40.680Z,671.8461
2023-05-12T02:40:42.324Z,670.3846
2023-05-12T02:41:44.955Z,677.6154
2023-05-12T02:42:45.588Z,674.3077
2023-05-12T02:43:47.206Z,673.9231
2023-05-12T02:44:48.855Z,676.1539
2023-05-12T02:45:50.642Z,683.5385
2023-05-12T02:46:52.120Z,677.1539
2023-05-12T02:47:53.926Z,679.0769
2023-05-12T02:48:55.479Z,672.6923
2023-05-12T02:49:57.104Z,668.2308
2023-05-12T02:50:58.720Z,675.0769
2023-05-12T02:52:00.418Z,682.7692
2023-05-12T02:53:02.085Z,677.5385
2023-05-12T02:54:03.674Z,674.3077
2023-05-12T02:55:05.359Z,674.8461
2023-05-12T02:56:06.992Z,679.3077
2023-05-12T02:57:08.639Z,680.4615
2023-05-12T02:58:10.307Z,678.9231
2023-05-12T02:59:11.945Z,677.9231
2023-05-12T03:00:13.580Z,671.2308
2023-05-12T03:01:15.212Z,664.5385
2023-05-12T03:02:16.892Z,664.3077
2023-05-12T03:03:18.553Z,664.6923
2023-05-12T03:04:20.142Z,669.0000
2023-05-12T03:05:21.803Z,668.2308
2023-05-12T03:06:23.460Z,666.3077
2023-05-12T03:07:25.146Z,668.1539
2023-05-12T03:08:26.818Z,666.9231
2023-05-12T03:09:28.370Z,667.0769
2023-05-12T03:10:30.051Z,664.6923
2023-05-12T03:11:31.652Z,668.2308
2023-05-12T03:12:33.288Z,674.5385
2023-05-12T03:13:35.440Z,671.6923
2023-05-12T03:14:36.657Z,666.9231
2023-05-12T03:15:38.237Z,667.7692
2023-05-12T03:16:40.553Z,667.2308
2023-05-12T03:17:41.581Z,667.4615
2023-05-12T03:18:43.229Z,671.6923
2023-05-12T03:19:44.802Z,665.4615
2023-05-12T03:20:46.518Z,661.3846
2023-05-12T03:21:48.084Z,659.1539
2023-05-12T03:22:49.770Z,662.0000
2023-05-12T03:23:51.452Z,667.0000
2023-05-12T03:24:53.072Z,662.5385
2023-05-12T03:25:54.668Z,656.0769
2023-05-12T03:26:56.320Z,655.5385
2023-05-12T03:27:57.972Z,656.8461
2023-05-12T03:28:59.674Z,660.6154
2023-05-12T03:30:01.252Z,663.1539
2023-05-12T03:31:03.117Z,667.7692
2023-05-12T03:32:04.585Z,665.6923
2023-05-12T03:33:06.253Z,654.6154
2023-05-12T03:34:07.915Z,660.0769
2023-05-12T03:35:09.633Z,663.9231
2023-05-12T03:36:11.139Z,664.6923
2023-05-12T03:37:12.859Z,664.0769
2023-05-12T03:38:14.440Z,675.0000
2023-05-12T03:39:16.191Z,664.2308
2023-05-12T03:40:18.975Z,663.6154
2023-05-12T03:41:19.407Z,662.7692
2023-05-12T03:42:21.048Z,659.6154
2023-05-12T03:43:22.761Z,658.3077
2023-05-12T03:44:24.363Z,658.0769
2023-05-12T03:45:26.062Z,659.6154
2023-05-12T03:46:27.661Z,662.6923
2023-05-12T03:47:29.463Z,669.4615
2023-05-12T03:48:30.971Z,668.5385
2023-05-12T03:49:32.567Z,667.5385
2023-05-12T03:50:34.258Z,666.3846
2023-05-12T03:51:35.978Z,666.0769
2023-05-12T03:52:37.513Z,665.1539
2023-05-12T03:53:39.188Z,659.3077
2023-05-12T03:54:40.809Z,655.0000
2023-05-12T03:55:42.965Z,659.8461
2023-05-12T03:56:44.133Z,651.0000
2023-05-12T03:57:45.744Z,661.5385
2023-05-12T03:58:47.436Z,666.3077
2023-05-12T03:59:49.102Z,663.3846
2023-05-12T04:00:50.732Z,667.6154
2023-05-12T04:01:52.392Z,665.5385
2023-05-12T04:02:54.038Z,668.9231
2023-05-12T04:03:55.729Z,666.0000
2023-05-12T04:04:57.281Z,659.3846
2023-05-12T04:05:58.967Z,656.3077
2023-05-12T04:07:00.650Z,655.9231
2023-05-12T04:08:02.228Z,660.6923
2023-05-12T04:09:03.896Z,668.7692
2023-05-12T04:10:05.540Z,657.1539
2023-05-12T04:11:07.481Z,653.0000
2023-05-12T04:12:08.793Z,650.3077
2023-05-12T04:13:10.460Z,653.1539
2023-05-12T04:14:12.083Z,654.3077
2023-05-12T04:15:13.799Z,665.1539
2023-05-12T04:16:15.524Z,667.0769
2023-05-12T04:17:17.041Z,664.4615
2023-05-12T04:18:18.697Z,664.9231
2023-05-12T04:19:20.329Z,662.3077
2023-05-12T04:20:22.121Z,667.0769
2023-05-12T04:21:24.494Z,664.7692
2023-05-12T04:22:25.817Z,668.6923
2023-05-12T04:23:26.945Z,661.6154
2023-05-12T04:24:28.648Z,656.0000
2023-05-12T04:25:30.234Z,658.9231
2023-05-12T04:26:31.872Z,660.2308
2023-05-12T04:27:33.526Z,660.8461
2023-05-12T04:28:35.176Z,661.3077
2023-05-12T04:29:36.825Z,660.0769
2023-05-12T04:30:38.470Z,663.2308
2023-05-12T04:31:40.177Z,660.3077
2023-05-12T04:32:41.789Z,659.0769
2023-05-12T04:33:43.464Z,655.5385
2023-05-12T04:34:45.951Z,661.0769
2023-05-12T04:35:47.453Z,659.3846
2023-05-12T04:36:48.389Z,658.9231
2023-05-12T04:37:50.973Z,660.2308
2023-05-12T04:38:51.699Z,659.2308
2023-05-12T04:39:53.280Z,657.3846
2023-05-12T04:40:54.914Z,653.3846
2023-05-12T04:41:56.666Z,649.2308
2023-05-12T04:42:58.232Z,653.2308
2023-05-12T04:44:00.380Z,657.2308
2023-05-12T04:45:01.505Z,659.2308
2023-05-12T04:46:03.222Z,659.2308
2023-05-12T04:47:04.875Z,656.1539
2023-05-12T04:48:07.501Z,653.9231
2023-05-12T04:49:09.095Z,655.9231
2023-05-12T04:50:09.950Z,660.5385
2023-05-12T04:51:11.604Z,669.8461
2023-05-12T04:52:13.228Z,658.6923
2023-05-12T04:53:14.828Z,653.1539
2023-05-12T04:54:16.495Z,657.4615
2023-05-12T04:55:18.429Z,664.1539
2023-05-12T04:56:19.883Z,668.0769
2023-05-12T04:57:21.653Z,679.4615
2023-05-12T04:58:23.141Z,678.6923
2023-05-12T04:59:24.731Z,675.1539
2023-05-12T05:00:26.516Z,674.4615
2023-05-12T05:01:28.106Z,675.6154
2023-05-12T05:02:30.270Z,682.6154
2023-05-12T05:03:31.492Z,679.2308
2023-05-12T05:04:33.047Z,676.2308
2023-05-12T05:05:34.658Z,670.5385
2023-05-12T05:06:36.306Z,672.9231
2023-05-12T05:07:38.947Z,669.2308
2023-05-12T05:08:40.443Z,665.3077
2023-05-12T05:09:41.291Z,664.5385
2023-05-12T05:10:42.868Z,666.0000
2023-05-12T05:11:44.586Z,670.0769
2023-05-12T05:12:46.171Z,673.0000
2023-05-12T05:13:47.841Z,680.5385
2023-05-12T05:14:50.425Z,673.3846
2023-05-12T05:15:51.295Z,669.5385
2023-05-12T05:16:52.750Z,669.7692
2023-05-12T05:17:54.647Z,668.7692
2023-05-12T05:18:57.614Z,663.2308
2023-05-12T05:19:59.226Z,666.3077
2023-05-12T05:20:59.522Z,668.6923
2023-05-12T05:22:01.021Z,670.1539
2023-05-12T05:23:02.724Z,670.6923
2023-05-12T05:24:04.346Z,670.5385
2023-05-12T05:25:05.930Z,670.6154
2023-05-12T05:26:07.667Z,669.1539
2023-05-12T05:27:09.230Z,668.4615
2023-05-12T05:28:10.966Z,662.3077
2023-05-12T05:29:12.548Z,659.5385
2023-05-12T05:30:14.256Z,669.5385
2023-05-12T05:31:15.866Z,669.3077
2023-05-12T05:32:17.499Z,668.0769
2023-05-12T05:33:19.250Z,665.0769
2023-05-12T05:34:20.812Z,662.0769
2023-05-12T05:35:22.635Z,656.3077
2023-05-12T05:36:24.046Z,656.2308
2023-05-12T05:37:25.717Z,657.4615
2023-05-12T05:38:28.225Z,656.0000
2023-05-12T05:39:28.958Z,656.0769
2023-05-12T05:40:38.536Z,660.0000
2023-05-12T05:41:32.471Z,662.1539
2023-05-12T05:42:34.058Z,662.2308
2023-05-12T05:43:35.623Z,663.6154
2023-05-12T05:44:37.182Z,663.7692
2023-05-12T05:45:38.888Z,664.0000
2023-05-12T05:46:40.547Z,664.2308
2023-05-12T05:47:42.220Z,658.2308
2023-05-12T05:48:43.859Z,650.5385
2023-05-12T05:49:45.468Z,652.4615
2023-05-12T05:50:47.089Z,658.6923
2023-05-12T05:51:48.751Z,659.9231
2023-05-12T05:52:50.404Z,656.6923
2023-05-12T05:53:52.107Z,657.0000
2023-05-12T05:54:53.714Z,663.0000
2023-05-12T05:55:55.694Z,664.9231
2023-05-12T05:56:57.264Z,663.1539
2023-05-12T05:57:58.710Z,659.5385
2023-05-12T05:59:00.272Z,661.7692
2023-05-12T06:00:01.999Z,661.4615
2023-05-12T06:01:04.091Z,666.0000
2023-05-12T06:02:05.294Z,662.4615
2023-05-12T06:03:06.991Z,656.4615
2023-05-12T06:04:09.544Z,654.0000
2023-05-12T06:05:10.146Z,655.1539
2023-05-12T06:06:12.957Z,665.0769
2023-05-12T06:07:13.452Z,666.2308
2023-05-12T06:08:15.035Z,665.1539
2023-05-12T06:09:16.734Z,660.9231
2023-05-12T06:10:18.622Z,654.7692
2023-05-12T06:11:19.983Z,653.4615
2023-05-12T06:12:21.570Z,650.3846
2023-05-12T06:13:23.245Z,652.5385
2023-05-12T06:14:25.100Z,653.9231
2023-05-12T06:15:26.584Z,654.2308
2023-05-12T06:16:28.240Z,653.8461
2023-05-12T06:17:32.066Z,655.9231
2023-05-12T06:18:31.490Z,656.6923
2023-05-12T06:19:33.722Z,656.8461
2023-05-12T06:20:34.769Z,655.3846
2023-05-12T06:21:36.428Z,657.6154
2023-05-12T06:22:38.056Z,649.4615
2023-05-12T06:23:39.774Z,650.8461
2023-05-12T06:24:41.401Z,652.9231
2023-05-12T06:25:43.029Z,659.3846
2023-05-12T06:26:44.675Z,658.8461
2023-05-12T06:27:46.316Z,656.6154
2023-05-12T06:28:47.984Z,656.3077
2023-05-12T06:29:49.604Z,657.3077
2023-05-12T06:30:51.220Z,660.0769
2023-05-12T06:31:52.902Z,660.4615
2023-05-12T06:32:54.519Z,657.8461
2023-05-12T06:33:56.159Z,654.8461
2023-05-12T06:34:57.846Z,653.8461
2023-05-12T06:35:59.543Z,654.7692
2023-05-12T06:37:01.074Z,653.4615
2023-05-12T06:38:02.805Z,660.0000
2023-05-12T06:39:04.418Z,660.1539
2023-05-12T06:40:06.072Z,661.4615
2023-05-12T06:41:08.669Z,654.9231
2023-05-12T06:42:09.385Z,654.6923
2023-05-12T06:43:10.978Z,658.6923
2023-05-12T06:44:12.643Z,659.5385
2023-05-12T06:45:14.287Z,654.3846
2023-05-12T06:46:16.030Z,657.2308
2023-05-12T06:47:17.544Z,658.3846
2023-05-12T06:48:19.172Z,658.8461
2023-05-12T06:49:20.796Z,660.2308
2023-05-12T06:50:22.572Z,656.5385
2023-05-12T06:51:24.135Z,658.6923
2023-05-12T06:52:26.490Z,654.3077
2023-05-12T06:53:27.371Z,657.6154
2023-05-12T06:54:29.144Z,657.7692
2023-05-12T06:55:30.717Z,656.4615
2023-05-12T06:56:32.453Z,656.2308
2023-05-12T06:57:34.047Z,658.6154
2023-05-12T06:58:35.619Z,659.4615
2023-05-12T06:59:37.304Z,663.0000
2023-05-12T07:00:39.669Z,658.0000
2023-05-12T07:01:40.691Z,656.9231
2023-05-12T07:02:42.280Z,661.5385
2023-05-12T07:03:43.855Z,661.0769
2023-05-12T07:04:45.625Z,661.7692
2023-05-12T07:05:47.189Z,662.3846
2023-05-12T07:06:48.912Z,662.9231
2023-05-12T07:07:50.576Z,663.3846
2023-05-12T07:08:52.157Z,660.0000
2023-05-12T07:09:53.738Z,658.3846
2023-05-12T07:10:55.467Z,656.4615
2023-05-12T07:11:57.126Z,655.0769
2023-05-12T07:12:58.722Z,655.2308
2023-05-12T07:14:00.377Z,657.3077
2023-05-12T07:15:02.017Z,656.9231
2023-05-12T07:16:03.626Z,655.6923
2023-05-12T07:17:05.242Z,654.3846
2023-05-12T07:18:06.991Z,656.4615
2023-05-12T07:19:08.672Z,653.7692
2023-05-12T07:20:10.172Z,654.0769
2023-05-12T07:21:11.867Z,660.9231
2023-05-12T07:22:16.179Z,661.1539
2023-05-12T07:23:15.049Z,659.7692
2023-05-12T07:24:16.708Z,655.6923
2023-05-12T07:25:19.150Z,653.3077
2023-05-12T07:26:21.648Z,650.0769
2023-05-12T07:27:21.624Z,655.2308
2023-05-12T07:28:23.276Z,661.8461
2023-05-12T07:29:24.914Z,658.5385
2023-05-12T07:30:26.660Z,653.6154
2023-05-12T07:31:29.197Z,653.0769
2023-05-12T07:32:29.920Z,657.3077
2023-05-12T07:33:32.683Z,660.0769
2023-05-12T07:34:33.208Z,659.3077
2023-05-12T07:35:34.949Z,656.6923
2023-05-12T07:36:36.574Z,654.7692
2023-05-12T07:37:38.356Z,651.9231
2023-05-12T07:38:39.905Z,650.9231
2023-05-12T07:39:41.554Z,653.8461
2023-05-12T07:40:43.140Z,654.9231
2023-05-12T07:41:44.876Z,655.8461
2023-05-12T07:42:46.429Z,652.9231
2023-05-12T07:43:48.276Z,653.5385
2023-05-12T07:44:49.706Z,651.4615
2023-05-12T07:45:51.441Z,648.6154
2023-05-12T07:46:54.100Z,649.6923
2023-05-12T07:47:55.557Z,656.5385
2023-05-12T07:48:56.266Z,659.1539
2023-05-12T07:49:58.693Z,660.8461
2023-05-12T07:50:59.543Z,657.8461
2023-05-12T07:52:01.270Z,654.5385
2023-05-12T07:53:02.856Z,652.8461
2023-05-12T07:54:04.540Z,653.0000
2023-05-12T07:55:06.158Z,653.0769
2023-05-12T07:56:07.861Z,655.8461
2023-05-12T07:57:09.478Z,653.8461
2023-05-12T07:58:11.059Z,659.4615
2023-05-12T07:59:12.754Z,661.0000
2023-05-12T08:00:14.413Z,660.2308
2023-05-12T08:01:16.109Z,661.1539
2023-05-12T08:02:18.202Z,652.7692
2023-05-12T08:03:19.403Z,648.3077
2023-05-12T08:04:21.027Z,650.0769
2023-05-12T08:05:22.701Z,648.0769
2023-05-12T08:06:25.026Z,647.8461
2023-05-12T08:07:26.195Z,645.7692
2023-05-12T08:08:27.516Z,649.6923
2023-05-12T08:09:29.221Z,652.0769
2023-05-12T08:10:30.843Z,652.6154
2023-05-12T08:11:32.475Z,651.6154
2023-05-12T08:12:34.131Z,652.6154
2023-05-12T08:13:35.733Z,653.7692
2023-05-12T08:14:37.335Z,655.7692
2023-05-12T08:15:39.045Z,657.6154
2023-05-12T08:16:40.739Z,654.8461
2023-05-12T08:17:42.359Z,654.3846
2023-05-12T08:18:43.986Z,656.0000
2023-05-12T08:19:45.571Z,650.8461
2023-05-12T08:20:47.249Z,650.6154
2023-05-12T08:21:48.878Z,652.4615
2023-05-12T08:22:52.173Z,653.3077
2023-05-12T08:23:53.209Z,647.8461
2023-05-12T08:24:54.044Z,658.3846
2023-05-12T08:25:55.600Z,652.6154
2023-05-12T08:26:57.359Z,646.3077
2023-05-12T08:27:58.976Z,647.5385
2023-05-12T08:29:00.599Z,652.8461
2023-05-12T08:30:02.223Z,650.8461
2023-05-12T08:31:05.127Z,649.6154
2023-05-12T08:32:05.421Z,647.0769
2023-05-12T08:33:07.213Z,643.1539
2023-05-12T08:34:10.906Z,643.1539
2023-05-12T08:35:10.391Z,649.4615
2023-05-12T08:36:11.987Z,656.5385
2023-05-12T08:37:13.783Z,649.7692
2023-05-12T08:38:15.662Z,643.1539
2023-05-12T08:39:16.957Z,644.9231
2023-05-12T08:40:18.571Z,649.3846
2023-05-12T08:41:20.257Z,650.4615
2023-05-12T08:42:21.960Z,647.7692
2023-05-12T08:43:23.624Z,647.6154
2023-05-12T08:44:25.172Z,650.3846
2023-05-12T08:45:26.913Z,647.7692
2023-05-12T08:46:28.509Z,646.8461
2023-05-12T08:47:30.145Z,649.4615
2023-05-12T08:48:31.788Z,645.9231
2023-05-12T08:49:33.495Z,645.3846
2023-05-12T08:50:35.128Z,648.0000
2023-05-12T08:51:36.721Z,648.0000
2023-05-12T08:52:38.363Z,645.1539
2023-05-12T08:53:40.057Z,647.5385
2023-05-12T08:54:52.414Z,649.6923
2023-05-12T08:55:48.224Z,649.6154
2023-05-12T08:57:46.627Z,647.5385
2023-05-12T08:58:48.222Z,653.2308
2023-05-12T08:59:49.969Z,650.2308
2023-05-12T09:00:51.604Z,649.5385
2023-05-12T09:01:53.363Z,648.6154
2023-05-12T09:02:55.118Z,648.5385
2023-05-12T09:03:56.598Z,646.8461
2023-05-12T09:04:58.192Z,645.3846
2023-05-12T09:05:59.836Z,641.0000
2023-05-12T09:07:01.459Z,636.9231
2023-05-12T09:08:03.112Z,647.7692
2023-05-12T09:09:04.763Z,646.0000
2023-05-12T09:10:06.419Z,644.5385
2023-05-12T09:11:08.086Z,644.7692
2023-05-12T09:12:10.556Z,641.4615
2023-05-12T09:13:11.343Z,639.5385
2023-05-12T09:14:13.049Z,643.0000
2023-05-12T09:15:14.729Z,646.5385
2023-05-12T09:16:16.334Z,654.6154
2023-05-12T09:17:17.992Z,650.9231
2023-05-12T09:18:19.623Z,644.8461
2023-05-12T09:19:21.186Z,643.3077
2023-05-12T09:20:30.818Z,643.8461
2023-05-12T09:21:24.438Z,650.1667
2023-05-12T09:22:26.084Z,654.0769
2023-05-12T09:23:27.742Z,647.6923
2023-05-12T09:24:29.387Z,644.6923
2023-05-12T09:25:31.078Z,652.7692
2023-05-12T09:26:32.704Z,653.6154
2023-05-12T09:27:34.389Z,650.7692
2023-05-12T09:28:36.020Z,643.5385
2023-05-12T09:29:45.310Z,643.3077
2023-05-12T09:30:39.317Z,640.5385
2023-05-12T09:31:40.959Z,640.8461
2023-05-12T09:32:42.548Z,646.0000
2023-05-12T09:33:44.217Z,647.3077
2023-05-12T09:34:46.595Z,646.5385
2023-05-12T09:35:47.543Z,646.3077
2023-05-12T09:36:49.156Z,650.2308
2023-05-12T09:37:51.846Z,644.1539
2023-05-12T09:38:52.595Z,644.3077
2023-05-12T09:39:54.192Z,643.3077
2023-05-12T09:40:55.873Z,637.3846
2023-05-12T09:41:57.552Z,642.0000
2023-05-12T09:42:59.144Z,642.0000
2023-05-12T09:44:00.894Z,646.5385
2023-05-12T09:45:02.478Z,647.7692
2023-05-12T09:46:04.139Z,646.6923
2023-05-12T09:47:05.800Z,640.7692
2023-05-12T09:48:07.442Z,648.6154
2023-05-12T09:49:09.111Z,657.0769
2023-05-12T09:50:10.741Z,657.8461
2023-05-12T09:51:12.376Z,656.9231
2023-05-12T09:52:14.036Z,655.6923
2023-05-12T09:53:15.709Z,653.1539
2023-05-12T09:54:18.281Z,648.6154
2023-05-12T09:55:19.068Z,645.1539
2023-05-12T09:56:20.645Z,656.1539
2023-05-12T09:57:22.248Z,659.4615
2023-05-12T09:58:23.891Z,659.0000
2023-05-12T09:59:25.576Z,658.0769
2023-05-12T10:00:41.293Z,663.0000
2023-05-12T10:01:28.873Z,670.6154
2023-05-12T10:02:30.725Z,680.5385
2023-05-12T10:03:32.099Z,681.4615
2023-05-12T10:04:33.802Z,680.9231
2023-05-12T10:05:35.400Z,675.1539
2023-05-12T10:06:37.748Z,672.0000
2023-05-12T10:07:38.802Z,672.4615
2023-05-12T10:08:40.509Z,677.6154
2023-05-12T10:09:41.999Z,672.9231
2023-05-12T10:10:43.612Z,669.3846
2023-05-12T10:11:45.348Z,668.1539
2023-05-12T10:12:46.957Z,661.6154
2023-05-12T10:13:48.597Z,668.0000
2023-05-12T10:14:50.207Z,668.5385
2023-05-12T10:15:51.954Z,668.7692
2023-05-12T10:16:54.268Z,664.5385
2023-05-12T10:17:55.264Z,662.8461
2023-05-12T10:18:56.898Z,665.1539
2023-05-12T10:19:58.449Z,668.4615
2023-05-12T10:21:00.240Z,666.8461
2023-05-12T10:22:02.346Z,664.2308
2023-05-12T10:23:03.419Z,663.8461
2023-05-12T10:24:05.053Z,663.5385
2023-05-12T10:25:06.673Z,666.0000
2023-05-12T10:26:08.337Z,667.1539
2023-05-12T10:27:10.752Z,665.0000
2023-05-12T10:28:11.784Z,660.8461
2023-05-12T10:29:13.296Z,659.2308
2023-05-12T10:30:14.944Z,662.7692
2023-05-12T10:31:16.712Z,658.2308
2023-05-12T10:32:19.292Z,660.8461
2023-05-12T10:33:20.358Z,661.9231
2023-05-12T10:34:21.662Z,657.6923
2023-05-12T10:35:23.171Z,651.1539
2023-05-12T10:36:24.844Z,650.7692
2023-05-12T10:37:27.216Z,653.6923
2023-05-12T10:38:28.158Z,655.6154
2023-05-12T10:39:29.718Z,656.0769
2023-05-12T10:40:32.381Z,652.9231
2023-05-12T10:41:33.049Z,652.9231
2023-05-12T10:42:35.275Z,649.7692
2023-05-12T10:43:36.372Z,648.3846
2023-05-12T10:44:38.022Z,648.8461
2023-05-12T10:45:39.663Z,652.6154
2023-05-12T10:46:41.317Z,652.0000
2023-05-12T10:47:43.059Z,651.7692
2023-05-12T10:48:44.597Z,650.7692
2023-05-12T10:49:46.264Z,651.5385
2023-05-12T10:50:47.858Z,648.6154
2023-05-12T10:51:49.524Z,652.7692
2023-05-12T10:52:51.172Z,652.6923
2023-05-12T10:53:54.860Z,649.6154
2023-05-12T10:54:54.509Z,653.4615
2023-05-12T10:55:56.288Z,654.1539
2023-05-12T10:56:57.964Z,649.9231
2023-05-12T10:58:00.154Z,649.3077
2023-05-12T10:59:01.468Z,649.4615
2023-05-12T11:00:03.835Z,648.0000
2023-05-12T11:01:05.055Z,653.1539
2023-05-12T11:02:06.975Z,651.1539
2023-05-12T11:03:10.441Z,647.7692
2023-05-12T11:04:09.410Z,651.1539
2023-05-12T11:05:11.223Z,651.9231
2023-05-12T11:06:12.806Z,651.2308
2023-05-12T11:07:14.707Z,650.9231
2023-05-12T11:08:16.061Z,651.2308
2023-05-12T11:09:18.002Z,650.4615
2023-05-12T11:10:19.706Z,647.0000
2023-05-12T11:11:20.870Z,645.1539
2023-05-12T11:12:22.583Z,642.0000
2023-05-12T11:13:24.192Z,640.8461
2023-05-12T11:14:25.819Z,643.1539
2023-05-12T11:15:27.491Z,640.4615
2023-05-12T11:16:29.155Z,641.6923
2023-05-12T11:17:30.784Z,641.9231
2023-05-12T11:18:32.442Z,642.6923
2023-05-12T11:19:34.074Z,642.0769
2023-05-12T11:20:35.628Z,642.0000
2023-05-12T11:21:37.371Z,640.9231
2023-05-12T11:22:38.979Z,641.6154
2023-05-12T11:23:40.704Z,639.1539
2023-05-12T11:24:42.298Z,637.2308
2023-05-12T11:25:44.451Z,636.4615
2023-05-12T11:26:45.620Z,638.9231
2023-05-12T11:27:47.598Z,649.6923
2023-05-12T11:28:48.913Z,644.6154
2023-05-12T11:29:52.368Z,641.1539
2023-05-12T11:30:54.699Z,644.2308
2023-05-12T11:31:53.876Z,639.0769
2023-05-12T11:32:55.429Z,637.6923
2023-05-12T11:34:10.846Z,640.0000
2023-05-12T11:34:58.801Z,643.6154
2023-05-12T11:36:00.464Z,651.9231
2023-05-12T11:37:02.067Z,661.2308
2023-05-12T11:38:03.742Z,671.4615
2023-05-12T11:39:05.387Z,675.1539
2023-05-12T11:40:07.090Z,677.6923
2023-05-12T11:41:08.620Z,687.9231
2023-05-12T11:42:13.433Z,701.0769
2023-05-12T11:43:12.047Z,711.3846
2023-05-12T11:44:13.663Z,717.9231
2023-05-12T11:45:15.254Z,724.4615
2023-05-12T11:46:17.011Z,728.8461
2023-05-12T11:47:18.588Z,729.2308
2023-05-12T11:48:20.339Z,734.0000
2023-05-12T11:49:22.293Z,749.0000
2023-05-12T11:50:23.568Z,756.2308
2023-05-12T11:51:25.120Z,759.3077
2023-05-12T11:52:26.806Z,750.0769
2023-05-12T11:53:28.499Z,744.3846
2023-05-12T11:54:30.148Z,743.2308
2023-05-12T11:55:31.720Z,743.4615
2023-05-12T11:56:33.429Z,745.0769
2023-05-12T11:57:35.756Z,743.1539
2023-05-12T11:58:36.683Z,737.4615
2023-05-12T11:59:38.797Z,727.4615
2023-05-12T12:00:40.052Z,729.0000
2023-05-12T12:01:41.609Z,730.2308
2023-05-12T12:02:43.471Z,726.9231
2023-05-12T12:03:45.037Z,715.2308
2023-05-12T12:04:46.641Z,710.8461